createdAt,value
2023-02-05T00:01:58.962Z,8.13
2023-02-05T00:04:26.705Z,8.40
2023-02-05T00:06:54.486Z,8.50
2023-02-05T00:09:22.348Z,8.10
2023-02-05T00:11:51.504Z,7.60
2023-02-05T00:14:19.191Z,7.47
2023-02-05T00:16:47.147Z,8.30
2023-02-05T00:19:14.929Z,7.77
2023-02-05T00:21:42.792Z,7.53
2023-02-05T00:24:10.516Z,7.27
2023-02-05T00:26:38.247Z,7.80
2023-02-05T00:29:07.421Z,7.80
2023-02-05T00:31:35.389Z,7.80
2023-02-05T00:34:03.152Z,7.67
2023-02-05T00:36:31.018Z,8.07
2023-02-05T00:38:58.764Z,8.43
2023-02-05T00:41:26.476Z,7.83
2023-02-05T00:43:54.223Z,7.93
2023-02-05T00:46:23.440Z,8.40
2023-02-05T00:48:51.191Z,8.23
2023-02-05T00:51:18.910Z,8.33
2023-02-05T00:53:46.690Z,8.33
2023-02-05T00:56:14.718Z,8.10
2023-02-05T00:58:47.482Z,8.40
2023-02-05T01:01:15.403Z,8.03
2023-02-05T01:03:44.643Z,8.37
2023-02-05T01:06:12.415Z,8.60
2023-02-05T01:08:40.197Z,8.93
2023-02-05T01:11:08.689Z,8.90
2023-02-05T01:13:36.375Z,8.77
2023-02-05T01:16:04.852Z,9.10
2023-02-05T01:18:32.669Z,8.43
2023-02-05T01:21:01.848Z,8.60
2023-02-05T01:23:29.634Z,8.50
2023-02-05T01:25:57.375Z,8.87
2023-02-05T01:28:25.065Z,8.57
2023-02-05T01:30:52.898Z,8.93
2023-02-05T01:33:20.658Z,9.00
2023-02-05T01:35:48.374Z,9.07
2023-02-05T01:38:17.529Z,8.80
2023-02-05T01:40:45.284Z,8.57
2023-02-05T01:43:13.830Z,8.60
2023-02-05T01:46:05.587Z,8.67
2023-02-05T01:48:35.551Z,8.83
2023-02-05T01:51:05.591Z,8.93
2023-02-05T01:53:36.161Z,9.30
2023-02-05T01:56:04.947Z,9.33
2023-02-05T01:58:33.746Z,9.17
2023-02-05T02:01:01.535Z,9.30
2023-02-05T02:03:29.690Z,8.80
2023-02-05T02:05:57.653Z,8.77
2023-02-05T02:08:25.612Z,8.73
2023-02-05T02:10:56.205Z,9.30
2023-02-05T02:13:24.588Z,9.30
2023-02-05T02:15:52.631Z,9.77
2023-02-05T02:18:29.984Z,8.83
2023-02-05T02:21:27.984Z,9.43
2023-02-05T02:24:13.959Z,9.57
2023-02-05T02:26:54.865Z,9.77
2023-02-05T02:29:31.908Z,9.30
2023-02-05T02:32:02.627Z,8.67
2023-02-05T02:34:32.472Z,9.23
2023-02-05T02:37:02.836Z,9.43
2023-02-05T02:39:33.761Z,9.77
2023-02-05T02:42:04.050Z,9.37
2023-02-05T02:44:35.022Z,9.33
2023-02-05T02:47:04.800Z,10.17
2023-02-05T02:49:34.826Z,10.07
2023-02-05T02:52:05.729Z,9.30
2023-02-05T02:54:34.183Z,9.87
2023-02-05T02:57:02.824Z,9.77
2023-02-05T02:59:31.864Z,10.70
2023-02-05T03:02:01.879Z,10.20
2023-02-05T03:04:30.664Z,9.57
2023-02-05T03:07:09.078Z,9.80
2023-02-05T03:09:40.805Z,9.63
2023-02-05T03:12:08.593Z,10.27
2023-02-05T03:14:36.841Z,10.23
2023-02-05T03:17:06.001Z,10.10
2023-02-05T03:19:34.254Z,10.13
2023-02-05T03:22:03.762Z,10.00
2023-02-05T03:24:36.452Z,9.70
2023-02-05T03:27:04.282Z,9.67
2023-02-05T03:29:33.831Z,9.90
2023-02-05T03:32:06.805Z,11.17
2023-02-05T03:34:43.670Z,10.80
2023-02-05T03:37:13.893Z,11.07
2023-02-05T03:39:47.072Z,11.17
2023-02-05T03:42:21.375Z,11.63
2023-02-05T03:44:58.590Z,11.40
2023-02-05T03:47:33.952Z,11.23
2023-02-05T03:50:08.086Z,10.60
2023-02-05T03:52:38.891Z,10.43
2023-02-05T03:55:08.916Z,11.63
2023-02-05T03:57:39.878Z,11.53
2023-02-05T04:00:08.384Z,11.67
2023-02-05T04:02:36.220Z,10.83
2023-02-05T04:05:05.709Z,10.90
2023-02-05T04:07:33.402Z,10.83
2023-02-05T04:10:01.165Z,11.50
2023-02-05T04:12:29.028Z,11.53
2023-02-05T04:14:56.699Z,11.53
2023-02-05T04:17:24.432Z,11.50
2023-02-05T04:19:52.132Z,12.00
2023-02-05T04:22:21.320Z,10.87
2023-02-05T04:24:49.076Z,11.17
2023-02-05T04:27:16.845Z,10.90
2023-02-05T04:29:44.636Z,10.60
2023-02-05T04:32:12.281Z,11.00
2023-02-05T04:34:40.007Z,10.87
2023-02-05T04:37:07.788Z,10.40
2023-02-05T04:39:36.854Z,10.80
2023-02-05T04:42:04.558Z,10.57
2023-02-05T04:44:32.256Z,11.20
2023-02-05T04:47:00.148Z,10.20
2023-02-05T04:49:27.914Z,10.07
2023-02-05T04:51:55.653Z,9.93
2023-02-05T04:54:23.377Z,11.03
2023-02-05T04:56:52.580Z,11.23
2023-02-05T04:59:20.306Z,10.37
2023-02-05T05:01:48.082Z,11.10
2023-02-05T05:04:15.789Z,10.57
2023-02-05T05:06:43.503Z,10.27
2023-02-05T05:09:11.324Z,10.33
2023-02-05T05:11:39.056Z,10.10
2023-02-05T05:14:08.238Z,10.90
2023-02-05T05:16:36.019Z,10.63
2023-02-05T05:19:03.810Z,11.27
2023-02-05T05:21:31.552Z,10.93
2023-02-05T05:23:59.310Z,10.17
2023-02-05T05:26:26.972Z,10.07
2023-02-05T05:28:55.370Z,10.40
2023-02-05T05:31:25.314Z,10.47
2023-02-05T05:33:53.275Z,9.70
2023-02-05T05:36:21.021Z,10.03
2023-02-05T05:38:48.703Z,10.73
2023-02-05T05:41:37.505Z,9.90
2023-02-05T05:44:05.450Z,10.40
2023-02-05T05:46:34.818Z,10.33
2023-02-05T05:49:04.000Z,9.90
2023-02-05T05:51:32.682Z,10.00
2023-02-05T05:54:01.160Z,9.70
2023-02-05T05:56:29.058Z,9.67
2023-02-05T05:58:56.699Z,10.63
2023-02-05T06:01:24.400Z,10.70
2023-02-05T06:03:53.518Z,10.23
2023-02-05T06:06:21.323Z,10.20
2023-02-05T06:08:49.062Z,9.77
2023-02-05T06:11:16.796Z,9.53
2023-02-05T06:13:44.494Z,8.93
2023-02-05T06:16:12.277Z,10.50
2023-02-05T06:18:39.987Z,10.27
2023-02-05T06:21:09.810Z,9.80
2023-02-05T06:23:37.562Z,11.10
2023-02-05T06:26:05.411Z,10.10
2023-02-05T06:28:33.115Z,10.03
2023-02-05T06:31:00.937Z,9.63
2023-02-05T06:33:28.718Z,9.53
2023-02-05T06:35:56.423Z,9.50
2023-02-05T06:38:25.588Z,9.77
2023-02-05T06:40:53.231Z,10.50
2023-02-05T06:43:20.946Z,9.90
2023-02-05T06:45:48.788Z,10.27
2023-02-05T06:48:16.891Z,9.47
2023-02-05T06:50:44.603Z,9.47
2023-02-05T06:53:12.261Z,8.90
2023-02-05T06:55:41.365Z,10.30
2023-02-05T06:58:09.036Z,9.87
2023-02-05T07:00:36.774Z,9.50
2023-02-05T07:03:04.925Z,8.80
2023-02-05T07:05:33.989Z,9.43
2023-02-05T07:08:04.135Z,8.47
2023-02-05T07:10:31.912Z,8.73
2023-02-05T07:13:01.134Z,9.03
2023-02-05T07:15:28.839Z,9.07
2023-02-05T07:17:57.304Z,10.03
2023-02-05T07:20:25.057Z,10.00
2023-02-05T07:22:52.815Z,9.83
2023-02-05T07:25:20.531Z,10.17
2023-02-05T07:27:48.370Z,8.87
2023-02-05T07:30:18.144Z,9.57
2023-02-05T07:32:45.908Z,9.97
2023-02-05T07:35:13.737Z,10.13
2023-02-05T07:37:41.474Z,10.10
2023-02-05T07:40:09.897Z,9.90
2023-02-05T07:42:37.577Z,10.30
2023-02-05T07:45:05.974Z,9.93
2023-02-05T07:47:35.072Z,10.73
2023-02-05T07:50:04.903Z,10.23
2023-02-05T07:52:32.869Z,8.70
2023-02-05T07:55:00.562Z,9.93
2023-02-05T07:57:28.323Z,10.00
2023-02-05T07:59:56.052Z,8.50
2023-02-05T08:02:23.786Z,9.57
2023-02-05T08:04:52.921Z,9.37
2023-02-05T08:07:20.587Z,9.40
2023-02-05T08:09:48.366Z,9.33
2023-02-05T08:12:16.059Z,9.47
2023-02-05T08:14:43.857Z,9.37
2023-02-05T08:17:11.748Z,9.43
2023-02-05T08:19:39.425Z,10.03
2023-02-05T08:22:08.483Z,9.50
2023-02-05T08:24:36.193Z,9.83
2023-02-05T08:27:03.936Z,10.00
2023-02-05T08:29:31.938Z,9.73
2023-02-05T08:31:59.694Z,10.57
2023-02-05T08:34:27.476Z,10.67
2023-02-05T08:36:55.139Z,10.77
2023-02-05T08:39:26.142Z,10.83
2023-02-05T08:41:56.692Z,10.90
2023-02-05T08:44:24.668Z,10.77
2023-02-05T08:46:52.375Z,11.40
2023-02-05T08:49:20.172Z,10.30
2023-02-05T08:51:47.919Z,9.80
2023-02-05T08:54:16.018Z,10.23
2023-02-05T08:56:46.645Z,9.87
2023-02-05T08:59:14.522Z,10.90
2023-02-05T09:01:43.115Z,10.93
2023-02-05T09:04:14.903Z,10.87
2023-02-05T09:06:43.110Z,11.03
2023-02-05T09:09:11.137Z,10.07
2023-02-05T09:11:39.149Z,10.57
2023-02-05T09:14:08.363Z,11.47
2023-02-05T09:16:36.284Z,10.80
2023-02-05T09:19:04.277Z,10.80
2023-02-05T09:21:32.077Z,10.80
2023-02-05T09:23:59.783Z,10.97
2023-02-05T09:26:27.709Z,10.83
2023-02-05T09:28:55.449Z,11.00
2023-02-05T09:31:24.723Z,10.93
2023-02-05T09:33:52.446Z,10.53
2023-02-05T09:36:22.270Z,10.60
2023-02-05T09:38:50.526Z,10.33
2023-02-05T09:41:23.318Z,10.33
2023-02-05T09:43:53.526Z,10.40
2023-02-05T09:46:27.158Z,9.90
2023-02-05T09:48:59.466Z,10.77
2023-02-05T09:51:30.714Z,9.57
2023-02-05T09:54:00.958Z,9.17
2023-02-05T09:56:29.264Z,8.97
2023-02-05T09:58:58.044Z,8.73
2023-02-05T10:01:31.112Z,8.73
2023-02-05T10:04:01.850Z,8.13
2023-02-05T10:06:36.577Z,8.10
2023-02-05T10:09:09.471Z,8.90
2023-02-05T10:11:41.226Z,8.57
2023-02-05T10:14:14.806Z,8.03
2023-02-05T10:16:51.506Z,7.10
2023-02-05T10:19:28.576Z,6.60
2023-02-05T10:22:04.949Z,6.87
2023-02-05T10:24:40.423Z,6.80
2023-02-05T10:27:10.902Z,5.90
2023-02-05T10:29:42.854Z,6.00
2023-02-05T10:32:16.339Z,5.50
2023-02-05T10:34:50.862Z,5.43
2023-02-05T10:37:20.381Z,5.00
2023-02-05T10:39:49.575Z,4.73
2023-02-05T10:42:27.675Z,4.50
2023-02-05T10:45:00.634Z,4.50
2023-02-05T10:47:37.297Z,4.67
2023-02-05T10:50:08.724Z,4.43
2023-02-05T10:52:37.228Z,3.67
2023-02-05T10:55:05.195Z,3.67
2023-02-05T10:57:35.384Z,3.90
2023-02-05T11:00:05.617Z,3.50
2023-02-05T11:02:34.738Z,3.83
2023-02-05T11:05:03.216Z,3.53
2023-02-05T11:07:35.633Z,3.27
2023-02-05T11:10:15.384Z,3.30
2023-02-05T11:12:44.779Z,2.80
2023-02-05T11:15:19.990Z,3.70
2023-02-05T11:17:51.719Z,3.17
2023-02-05T11:20:28.042Z,3.00
2023-02-05T11:23:08.291Z,3.00
2023-02-05T11:25:36.173Z,2.30
2023-02-05T11:28:05.610Z,2.40
2023-02-05T11:30:50.805Z,2.10
2023-02-05T11:33:27.515Z,2.00
2023-02-05T11:35:56.987Z,2.00
2023-02-05T11:38:32.284Z,1.83
2023-02-05T11:41:01.665Z,2.00
2023-02-05T11:43:31.616Z,1.80
2023-02-05T11:46:00.034Z,1.80
2023-02-05T11:48:35.884Z,1.60
2023-02-05T11:51:04.415Z,1.80
2023-02-05T11:53:34.214Z,1.70
2023-02-05T11:56:03.204Z,2.00
2023-02-05T11:58:37.097Z,1.50
2023-02-05T12:01:07.100Z,1.60
2023-02-05T12:03:35.523Z,1.83
2023-02-05T12:06:12.064Z,1.60
2023-02-05T12:08:44.808Z,1.70
2023-02-05T12:11:24.198Z,1.60
2023-02-05T12:13:57.822Z,1.80
2023-02-05T12:16:34.244Z,1.83
2023-02-05T12:19:07.783Z,1.50
2023-02-05T12:21:43.044Z,1.77
2023-02-05T12:24:28.742Z,1.90
2023-02-05T12:27:05.774Z,1.30
2023-02-05T12:29:41.679Z,1.50
2023-02-05T12:32:16.130Z,1.70
2023-02-05T12:34:50.363Z,1.40
2023-02-05T12:37:25.701Z,1.60
2023-02-05T12:39:54.271Z,1.63
2023-02-05T12:42:33.417Z,1.63
2023-02-05T12:45:08.853Z,1.50
2023-02-05T12:47:42.783Z,1.73
2023-02-05T12:50:16.474Z,1.47
2023-02-05T12:52:50.977Z,1.80
2023-02-05T12:55:25.839Z,1.80
2023-02-05T12:57:57.567Z,1.80
2023-02-05T13:00:27.337Z,1.83
2023-02-05T13:02:56.815Z,1.60
2023-02-05T13:05:28.229Z,1.70
2023-02-05T13:07:59.005Z,1.40
2023-02-05T13:10:29.580Z,1.87
2023-02-05T13:13:00.168Z,1.90
2023-02-05T13:15:29.927Z,1.60
2023-02-05T13:18:00.749Z,1.70
2023-02-05T13:20:44.680Z,1.63
2023-02-05T13:23:31.409Z,1.70
2023-02-05T13:26:17.231Z,1.80
2023-02-05T13:28:48.110Z,1.70
2023-02-05T13:31:22.508Z,1.70
2023-02-05T13:33:50.585Z,1.57
2023-02-05T13:36:36.221Z,1.57
2023-02-05T13:39:13.796Z,1.70
2023-02-05T13:41:51.312Z,1.60
2023-02-05T13:44:39.284Z,1.70
2023-02-05T13:47:27.696Z,1.63
2023-02-05T13:50:04.170Z,1.50
2023-02-05T13:52:58.770Z,1.60
2023-02-05T13:55:39.216Z,1.60
2023-02-05T13:58:10.722Z,1.60
2023-02-05T14:00:41.594Z,1.63
2023-02-05T14:03:10.188Z,1.70
2023-02-05T14:05:40.286Z,1.60
2023-02-05T14:08:18.410Z,1.60
2023-02-05T14:10:48.216Z,1.80
2023-02-05T14:13:23.021Z,1.80
2023-02-05T14:15:54.198Z,1.90
2023-02-05T14:18:40.673Z,1.60
2023-02-05T14:21:23.263Z,1.77
2023-02-05T14:24:00.809Z,1.87
2023-02-05T14:26:48.270Z,1.80
2023-02-05T14:29:34.774Z,1.60
2023-02-05T14:32:03.940Z,1.47
2023-02-05T14:34:52.288Z,1.60
2023-02-05T14:37:41.120Z,1.90
2023-02-05T14:40:27.419Z,1.70
2023-02-05T14:43:08.444Z,1.80
2023-02-05T14:45:43.638Z,1.87
2023-02-05T14:48:20.397Z,1.90
2023-02-05T14:50:48.109Z,1.90
2023-02-05T14:53:25.268Z,1.77
2023-02-05T14:55:56.675Z,1.70
2023-02-05T14:58:27.644Z,1.80
2023-02-05T15:01:10.185Z,1.70
2023-02-05T15:03:40.705Z,1.80
2023-02-05T15:06:10.491Z,1.77
2023-02-05T15:08:41.953Z,1.77
2023-02-05T15:11:12.833Z,1.90
2023-02-05T15:13:40.622Z,1.87
2023-02-05T15:16:10.400Z,1.77
2023-02-05T15:18:42.175Z,1.70
2023-02-05T15:21:15.232Z,1.80
2023-02-05T15:23:50.074Z,1.90
2023-02-05T15:26:21.009Z,2.00
2023-02-05T15:28:53.696Z,1.80
2023-02-05T15:31:27.298Z,1.90
2023-02-05T15:34:03.343Z,1.90
2023-02-05T15:36:36.643Z,1.80
2023-02-05T15:39:13.221Z,2.00
2023-02-05T15:41:43.228Z,1.73
2023-02-05T15:44:20.734Z,1.80
2023-02-05T15:46:49.199Z,1.90
2023-02-05T15:49:18.976Z,1.83
2023-02-05T15:51:47.456Z,1.73
2023-02-05T15:54:20.265Z,1.80
2023-02-05T15:56:50.604Z,1.90
2023-02-05T15:59:24.906Z,2.00
2023-02-05T16:01:55.254Z,1.90
2023-02-05T16:04:30.664Z,1.80
2023-02-05T16:07:00.661Z,1.80
2023-02-05T16:09:29.616Z,1.63
2023-02-05T16:11:57.701Z,1.90
2023-02-05T16:14:26.900Z,1.93
2023-02-05T16:17:01.889Z,1.87
2023-02-05T16:19:34.411Z,1.70
2023-02-05T16:22:04.712Z,1.60
2023-02-05T16:24:34.028Z,1.80
2023-02-05T16:27:04.768Z,1.80
2023-02-05T16:29:46.277Z,1.87
2023-02-05T16:32:20.057Z,1.80
2023-02-05T16:34:49.933Z,1.67
2023-02-05T16:37:19.003Z,1.90
2023-02-05T16:39:48.222Z,1.80
2023-02-05T16:42:31.278Z,1.80
2023-02-05T16:45:05.862Z,1.80
2023-02-05T16:47:33.874Z,1.70
2023-02-05T16:50:23.346Z,1.70
2023-02-05T16:52:57.723Z,1.80
2023-02-05T16:55:40.637Z,1.50
2023-02-05T16:58:08.692Z,1.60
2023-02-05T17:00:37.062Z,1.60
2023-02-05T17:03:07.254Z,1.60
2023-02-05T17:05:37.726Z,1.60
2023-02-05T17:08:07.039Z,1.40
2023-02-05T17:10:48.920Z,1.60
2023-02-05T17:13:27.252Z,1.60
2023-02-05T17:15:55.129Z,1.30
2023-02-05T17:18:27.645Z,1.50
2023-02-05T17:21:14.104Z,1.70
2023-02-05T17:23:48.783Z,1.50
2023-02-05T17:26:17.137Z,1.60
2023-02-05T17:28:46.882Z,1.23
2023-02-05T17:31:17.316Z,1.70
2023-02-05T17:33:45.638Z,1.73
2023-02-05T17:36:16.385Z,1.83
2023-02-05T17:38:46.690Z,1.37
2023-02-05T17:41:33.826Z,1.93
2023-02-05T17:44:01.748Z,1.70
2023-02-05T17:46:29.685Z,1.67
2023-02-05T17:48:57.595Z,2.00
2023-02-05T17:51:25.940Z,1.70
2023-02-05T17:53:55.244Z,1.70
2023-02-05T17:56:23.524Z,1.77
2023-02-05T17:58:52.446Z,1.80
2023-02-05T18:01:20.742Z,1.43
2023-02-05T18:03:48.565Z,1.37
2023-02-05T18:06:17.377Z,1.20
2023-02-05T18:08:45.197Z,1.60
2023-02-05T18:11:14.564Z,1.30
2023-02-05T18:13:42.313Z,1.40
2023-02-05T18:16:12.215Z,1.50
2023-02-05T18:18:40.318Z,1.50
2023-02-05T18:21:08.444Z,1.53
2023-02-05T18:23:36.139Z,1.20
2023-02-05T18:26:05.828Z,1.40
2023-02-05T18:28:35.369Z,1.47
2023-02-05T18:31:03.796Z,1.40
2023-02-05T18:33:31.582Z,1.40
2023-02-05T18:36:00.943Z,1.70
2023-02-05T18:38:28.855Z,1.70
2023-02-05T18:40:56.543Z,1.70
2023-02-05T18:43:24.299Z,1.50
2023-02-05T18:45:54.598Z,1.33
2023-02-05T18:48:22.369Z,1.20
2023-02-05T18:50:50.173Z,1.80
2023-02-05T18:53:17.900Z,1.70
2023-02-05T18:55:45.629Z,1.60
2023-02-05T18:58:13.324Z,1.40
2023-02-05T19:00:41.021Z,1.30
2023-02-05T19:03:10.269Z,1.40
2023-02-05T19:05:38.013Z,1.30
2023-02-05T19:08:06.642Z,1.30
2023-02-05T19:10:34.579Z,1.30
2023-02-05T19:13:02.405Z,1.40
2023-02-05T19:15:31.652Z,1.50
2023-02-05T19:17:59.427Z,1.63
2023-02-05T19:20:28.530Z,1.60
2023-02-05T19:22:56.300Z,1.60
2023-02-05T19:25:24.132Z,1.57
2023-02-05T19:27:53.176Z,1.60
2023-02-05T19:30:21.004Z,1.70
2023-02-05T19:32:48.726Z,1.80
2023-02-05T19:35:16.408Z,1.67
2023-02-05T19:37:45.591Z,1.50
2023-02-05T19:40:15.359Z,1.60
2023-02-05T19:42:44.656Z,1.60
2023-02-05T19:45:12.443Z,1.40
2023-02-05T19:47:40.143Z,1.20
2023-02-05T19:50:08.212Z,1.30
2023-02-05T19:52:35.930Z,1.47
2023-02-05T19:55:05.243Z,1.57
2023-02-05T19:57:33.404Z,1.40
2023-02-05T20:00:01.133Z,1.57
2023-02-05T20:02:28.896Z,1.47
2023-02-05T20:04:56.620Z,1.30
2023-02-05T20:07:24.297Z,1.50
2023-02-05T20:09:52.202Z,1.40
2023-02-05T20:12:21.316Z,1.40
2023-02-05T20:14:49.022Z,1.40
2023-02-05T20:17:17.782Z,1.57
2023-02-05T20:19:45.530Z,1.47
2023-02-05T20:22:13.289Z,1.47
2023-02-05T20:24:41.037Z,1.40
2023-02-05T20:27:08.890Z,1.50
2023-02-05T20:29:55.674Z,1.60
2023-02-05T20:32:23.456Z,1.40
2023-02-05T20:34:51.187Z,1.33
2023-02-05T20:37:19.930Z,1.30
2023-02-05T20:39:48.429Z,1.40
2023-02-05T20:42:16.753Z,1.50
2023-02-05T20:44:45.926Z,1.47
2023-02-05T20:47:15.084Z,1.50
2023-02-05T20:49:43.461Z,1.40
2023-02-05T20:52:11.547Z,1.47
2023-02-05T20:54:39.476Z,1.53
2023-02-05T20:57:07.861Z,1.50
2023-02-05T20:59:38.712Z,1.60
2023-02-05T21:02:08.031Z,1.53
2023-02-05T21:04:37.358Z,1.50
2023-02-05T21:07:05.213Z,1.60
2023-02-05T21:09:32.963Z,1.30
2023-02-05T21:12:00.748Z,1.43
2023-02-05T21:14:28.614Z,1.50
2023-02-05T21:16:56.324Z,1.40
2023-02-05T21:19:25.443Z,1.30
2023-02-05T21:21:53.186Z,1.50
2023-02-05T21:24:21.469Z,1.63
2023-02-05T21:26:49.942Z,1.60
2023-02-05T21:29:18.787Z,1.40
2023-02-05T21:31:47.076Z,1.47
2023-02-05T21:34:15.818Z,1.50
2023-02-05T21:36:44.888Z,1.60
2023-02-05T21:39:15.972Z,1.60
2023-02-05T21:41:44.914Z,1.50
2023-02-05T21:44:12.811Z,1.60
2023-02-05T21:46:40.833Z,1.50
2023-02-05T21:49:08.722Z,1.40
2023-02-05T21:51:36.507Z,1.50
2023-02-05T21:54:06.404Z,1.40
2023-02-05T21:56:35.453Z,1.60
2023-02-05T21:59:03.295Z,1.57
2023-02-05T22:01:31.859Z,1.70
2023-02-05T22:04:01.055Z,1.70
2023-02-05T22:06:29.962Z,1.60
2023-02-05T22:08:58.119Z,1.60
2023-02-05T22:11:28.005Z,1.70
2023-02-05T22:13:56.222Z,1.70
2023-02-05T22:16:24.836Z,1.60
2023-02-05T22:18:53.173Z,1.80
2023-02-05T22:21:22.181Z,1.60
2023-02-05T22:23:50.479Z,1.60
2023-02-05T22:26:19.071Z,1.63
2023-02-05T22:28:48.516Z,1.80
2023-02-05T22:31:17.558Z,1.60
2023-02-05T22:33:46.104Z,1.60
2023-02-05T22:36:15.092Z,1.60
2023-02-05T22:38:43.141Z,1.70
2023-02-05T22:41:11.391Z,1.80
2023-02-05T22:43:39.446Z,1.70
2023-02-05T22:46:09.212Z,1.57
2023-02-05T22:48:37.165Z,1.70
2023-02-05T22:51:05.690Z,1.80
2023-02-05T22:53:33.609Z,1.63
2023-02-05T22:56:02.163Z,1.90
2023-02-05T22:58:30.128Z,1.80
2023-02-05T23:00:58.209Z,1.73
2023-02-05T23:03:27.714Z,1.70
2023-02-05T23:05:55.425Z,1.70
2023-02-05T23:08:23.188Z,1.90
2023-02-05T23:10:51.176Z,1.80
2023-02-05T23:13:19.005Z,1.97
2023-02-05T23:15:46.724Z,1.80
2023-02-05T23:18:14.465Z,1.80
2023-02-05T23:20:43.714Z,1.90
2023-02-05T23:23:11.431Z,2.00
2023-02-05T23:25:39.158Z,1.80
2023-02-05T23:28:06.921Z,1.97
2023-02-05T23:30:34.656Z,1.80
2023-02-05T23:33:02.429Z,1.90
2023-02-05T23:35:30.182Z,1.90
2023-02-05T23:37:59.346Z,1.70
2023-02-05T23:40:27.062Z,1.70
2023-02-05T23:42:54.793Z,2.00
2023-02-05T23:45:22.542Z,1.90
2023-02-05T23:47:50.237Z,1.93
2023-02-05T23:50:18.030Z,1.83
2023-02-05T23:52:45.709Z,2.00
2023-02-05T23:55:14.936Z,2.10
2023-02-05T23:57:42.691Z,2.10
